Time;durP1;ratioP1;P1;durP2;ratioP2;P2;SDS_P1;SDS_P2;PMS_P1;PMS_P2;Temp;Humidity;BMP_temperature;BMP_pressure;BME280_temperature;BME280_humidity;BME280_pressure;Samples;Min_cycle;Max_cycle;Signal;HPM_P1;HPM_P2
2023/03/15 00:01:17;;;;;;;;;19.20;17.40;;;;;11.98;28.23;97903.16;4968094;28;8874;-78
2023/03/15 00:03:47;;;;;;;;;23.60;23.40;;;;;11.89;28.25;97901.84;4987393;28;8864;-77
2023/03/15 00:06:16;;;;;;;;;20.20;19.40;;;;;11.58;28.00;97905.22;4954541;28;8872;-76
2023/03/15 00:08:46;;;;;;;;;20.80;18.00;;;;;11.81;28.26;97913.69;4985150;28;9634;-78
2023/03/15 00:11:17;;;;;;;;;26.60;24.00;;;;;11.75;28.38;97922.75;4968647;28;8853;-75
2023/03/15 00:13:47;;;;;;;;;21.00;20.00;;;;;11.85;27.93;97915.25;4939905;28;8856;-76
2023/03/15 00:16:17;;;;;;;;;26.00;21.00;;;;;11.84;28.18;97909.16;4989204;28;8852;-77
2023/03/15 00:18:46;;;;;;;;;19.00;18.20;;;;;11.88;28.00;97907.19;4987996;28;8876;-76
2023/03/15 00:21:15;;;;;;;;;20.60;19.80;;;;;11.85;28.38;97908.22;4972138;28;8865;-77
2023/03/15 00:23:44;;;;;;;;;22.80;18.80;;;;;11.98;28.77;97902.31;4988331;28;8985;-76
2023/03/15 00:26:14;;;;;;;;;22.80;19.80;;;;;12.12;28.72;97894.50;4991526;28;8904;-76
2023/03/15 00:28:43;;;;;;;;;19.80;17.80;;;;;12.07;28.73;97883.34;4988048;28;8875;-77
2023/03/15 00:31:15;;;;;;;;;24.20;21.40;;;;;12.13;28.82;97897.06;5030367;28;8856;-77
2023/03/15 00:33:46;;;;;;;;;27.20;22.60;;;;;12.02;29.09;97888.88;5029191;28;8942;-77
2023/03/15 00:36:16;;;;;;;;;18.60;16.40;;;;;12.17;28.88;97881.09;5045121;28;8840;-77
2023/03/15 00:38:44;;;;;;;;;21.20;20.00;;;;;12.23;28.90;97876.34;5087381;28;8875;-78
2023/03/15 00:41:16;;;;;;;;;22.60;20.20;;;;;12.22;28.71;97876.41;5054309;28;8844;-76
2023/03/15 00:43:47;;;;;;;;;20.00;18.60;;;;;12.29;29.04;97877.78;5071017;28;8995;-76
2023/03/15 00:46:17;;;;;;;;;19.00;18.60;;;;;12.28;29.12;97874.31;5071362;28;8834;-76
2023/03/15 00:48:48;;;;;;;;;25.00;21.80;;;;;12.31;29.15;97879.38;5054745;28;8889;-75
2023/03/15 00:51:20;;;;;;;;;23.40;23.20;;;;;12.26;29.83;97878.81;5088261;28;8845;-76
2023/03/15 00:53:50;;;;;;;;;24.00;20.00;;;;;12.32;29.75;97867.94;5087564;28;8843;-77
2023/03/15 00:56:21;;;;;;;;;23.50;22.25;;;;;12.32;29.79;97872.34;5054433;28;8840;-76
2023/03/15 00:58:52;;;;;;;;;25.50;22.25;;;;;12.14;30.25;97858.38;5070841;28;8890;-76
2023/03/15 01:01:24;;;;;;;;;26.00;23.80;;;;;11.62;31.36;97867.28;5036729;28;8845;-77
2023/03/15 01:03:54;;;;;;;;;30.25;28.75;;;;;11.65;31.52;97868.88;5086528;28;8857;-77
2023/03/15 01:06:27;;;;;;;;;29.40;26.40;;;;;11.83;31.24;97870.59;5086587;28;8842;-76
2023/03/15 01:08:56;;;;;;;;;32.25;30.50;;;;;11.62;31.54;97874.31;5082406;28;8856;-77
2023/03/15 01:11:28;;;;;;;;;32.75;29.75;;;;;11.82;31.55;97873.25;5049359;28;8864;-76
2023/03/15 01:13:59;;;;;;;;;32.50;30.00;;;;;11.66;31.75;97873.22;5082118;28;8845;-77
2023/03/15 01:16:28;;;;;;;;;37.00;30.00;;;;;10.69;33.63;97883.28;5049458;28;8860;-75
2023/03/15 01:18:57;;;;;;;;;33.25;32.00;;;;;10.14;34.92;97884.97;5048769;28;8852;-76
2023/03/15 01:21:27;;;;;;;;;27.75;24.75;;;;;10.65;33.65;97879.09;5048936;28;8844;-77
2023/03/15 01:23:55;;;;;;;;;33.25;31.50;;;;;10.66;33.99;97880.81;5047195;28;8853;-76
2023/03/15 01:26:24;;;;;;;;;32.25;30.00;;;;;10.54;34.48;97871.75;5048985;28;8826;-76
2023/03/15 01:28:53;;;;;;;;;28.75;27.50;;;;;10.44;34.71;97871.31;5013940;28;8888;-75
2023/03/15 01:31:27;;;;;;;;;24.75;23.25;;;;;10.50;34.71;97872.78;5048890;28;9688;-75
2023/03/15 01:33:56;;;;;;;;;36.00;30.75;;;;;10.47;34.71;97873.81;5029481;28;8947;-76
2023/03/15 01:36:27;;;;;;;;;34.50;30.75;;;;;10.80;33.89;97865.25;5014397;28;8877;-77
2023/03/15 01:38:56;;;;;;;;;39.25;33.50;;;;;10.62;34.50;97860.88;4981106;28;8849;-76
2023/03/15 01:41:31;;;;;;;;;31.25;28.75;;;;;10.70;34.24;97853.47;5045529;28;9062;-76
2023/03/15 01:43:59;;;;;;;;;34.50;31.50;;;;;10.79;34.30;97843.38;5030097;28;8818;-76
2023/03/15 01:46:33;;;;;;;;;37.25;33.50;;;;;10.26;35.26;97853.81;5013822;28;8940;-78
2023/03/15 01:49:22;;;;;;;;;33.25;31.25;;;;;10.48;35.04;97841.38;5035413;28;8854;-76
2023/03/15 01:51:55;;;;;;;;;34.50;33.00;;;;;10.63;34.60;97842.38;5015478;28;9664;-75
2023/03/15 01:54:29;;;;;;;;;37.00;33.50;;;;;10.82;34.25;97839.72;5028908;28;8873;-78
2023/03/15 01:57:04;;;;;;;;;36.00;34.25;;;;;10.93;34.09;97823.44;4988180;28;8838;-74
2023/03/15 01:59:38;;;;;;;;;34.00;32.00;;;;;10.72;34.66;97834.06;4957369;28;9041;-75
2023/03/15 02:02:13;;;;;;;;;37.00;34.50;;;;;10.79;34.83;97827.59;4989823;28;9025;-76
2023/03/15 02:04:46;;;;;;;;;40.75;36.00;;;;;10.89;34.67;97829.78;4974240;28;8866;-75
2023/03/15 02:07:20;;;;;;;;;37.75;34.75;;;;;10.67;35.40;97824.69;5006081;28;8873;-77
2023/03/15 02:09:58;;;;;;;;;37.00;32.75;;;;;10.56;35.46;97823.44;5045613;28;8896;-75
2023/03/15 02:12:30;;;;;;;;;34.50;33.00;;;;;10.30;36.15;97827.31;5061516;28;8845;-75
2023/03/15 02:15:01;;;;;;;;;41.50;34.75;;;;;10.39;35.95;97828.66;5043694;28;8846;-74
2023/03/15 02:17:37;;;;;;;;;36.00;34.25;;;;;10.51;35.55;97828.06;4980697;28;8858;-77
2023/03/15 02:20:18;;;;;;;;;27.00;24.75;;;;;10.45;36.08;97838.88;5045628;28;8885;-75
2023/03/15 02:22:52;;;;;;;;;35.75;31.00;;;;;10.34;35.78;97834.13;5045525;28;8960;-75
2023/03/15 02:25:29;;;;;;;;;41.00;37.25;;;;;10.32;36.02;97835.97;5062205;28;8838;-75
2023/03/15 02:27:59;;;;;;;;;41.00;35.00;;;;;10.14;36.20;97834.22;5028935;28;8854;-76
2023/03/15 02:30:28;;;;;;;;;40.50;36.50;;;;;9.56;37.54;97842.94;5066857;28;8829;-75
2023/03/15 02:32:59;;;;;;;;;39.00;36.00;;;;;9.49;37.48;97852.00;5069178;28;8876;-76
2023/03/15 02:35:31;;;;;;;;;40.00;33.00;;;;;9.57;37.70;97839.41;5049108;28;8854;-75
2023/03/15 02:38:01;;;;;;;;;39.50;35.75;;;;;9.19;38.27;97845.38;5094991;28;8882;-76
2023/03/15 02:40:32;;;;;;;;;42.50;35.25;;;;;8.92;39.23;97851.78;5013770;28;8901;-75
2023/03/15 02:43:07;;;;;;;;;38.50;35.75;;;;;8.72;39.78;97860.44;5005529;28;8957;-76
2023/03/15 02:45:38;;;;;;;;;43.25;38.50;;;;;8.62;39.66;97845.09;5001905;28;8861;-75
2023/03/15 02:48:09;;;;;;;;;44.00;37.00;;;;;8.61;39.44;97846.03;5003773;28;8848;-76
2023/03/15 02:50:38;;;;;;;;;37.00;34.25;;;;;8.80;39.27;97847.91;5005290;28;8864;-75
2023/03/15 02:53:08;;;;;;;;;43.75;37.00;;;;;8.68;39.46;97846.63;5017404;28;8921;-76
2023/03/15 02:55:37;;;;;;;;;42.75;37.75;;;;;8.92;39.27;97839.53;4985676;28;9027;-75
2023/03/15 02:58:07;;;;;;;;;37.75;34.75;;;;;9.00;39.10;97833.97;4985915;28;8885;-75
2023/03/15 03:00:36;;;;;;;;;42.50;34.75;;;;;9.07;39.01;97837.19;5019408;28;9693;-76
2023/03/15 03:03:05;;;;;;;;;34.50;31.75;;;;;9.22;38.59;97823.44;5005678;28;8872;-75
2023/03/15 03:05:33;;;;;;;;;40.00;37.00;;;;;9.28;38.45;97824.94;5000973;28;8903;-76
2023/03/15 03:08:02;;;;;;;;;40.50;35.75;;;;;9.37;38.31;97828.00;5002164;28;8877;-76
2023/03/15 03:10:31;;;;;;;;;38.75;35.50;;;;;9.44;38.00;97841.69;4985605;28;8893;-76
2023/03/15 03:13:01;;;;;;;;;41.50;36.50;;;;;9.40;38.19;97838.38;5002018;28;8935;-75
2023/03/15 03:15:35;;;;;;;;;42.75;39.25;;;;;9.51;38.15;97829.16;5022806;28;8923;-76
2023/03/15 03:18:04;;;;;;;;;39.00;35.50;;;;;9.45;38.30;97834.69;5030406;28;8863;-76
2023/03/15 03:20:33;;;;;;;;;42.00;36.50;;;;;9.42;38.30;97843.53;5023812;28;8898;-76
2023/03/15 03:23:04;;;;;;;;;44.00;38.25;;;;;9.36;38.13;97843.81;4991709;28;8836;-77
2023/03/15 03:25:35;;;;;;;;;37.50;36.50;;;;;9.27;38.19;97855.53;5028856;28;8848;-78
2023/03/15 03:28:04;;;;;;;;;36.50;33.25;;;;;9.32;38.36;97861.44;5029332;28;8865;-77
2023/03/15 03:30:36;;;;;;;;;36.75;32.75;;;;;9.32;38.38;97865.84;5062532;28;8933;-77
2023/03/15 03:33:05;;;;;;;;;32.75;31.75;;;;;9.31;38.45;97867.63;5029941;28;8918;-75
2023/03/15 03:35:34;;;;;;;;;46.00;38.00;;;;;9.32;38.26;97865.84;5070242;28;8868;-77
2023/03/15 03:38:03;;;;;;;;;38.00;36.25;;;;;9.23;38.31;97853.97;5048352;28;8995;-78
2023/03/15 03:40:37;;;;;;;;;39.00;33.50;;;;;8.62;40.06;97850.34;5029872;28;8873;-77
2023/03/15 03:43:08;;;;;;;;;35.00;31.75;;;;;8.73;39.65;97844.69;5062375;28;8853;-76
2023/03/15 03:45:39;;;;;;;;;37.75;35.25;;;;;8.90;39.06;97851.00;5046154;28;8864;-77
2023/03/15 03:48:10;;;;;;;;;36.25;33.75;;;;;8.91;39.02;97863.16;5064252;28;8852;-76
2023/03/15 03:50:39;;;;;;;;;35.00;32.00;;;;;8.96;39.40;97859.44;5028611;28;8852;-76
2023/03/15 03:53:07;;;;;;;;;29.50;27.25;;;;;8.92;39.60;97859.66;5028465;28;8852;-75
2023/03/15 03:55:38;;;;;;;;;25.50;23.25;;;;;9.02;38.97;97851.31;5008819;28;8868;-77
2023/03/15 03:58:07;;;;;;;;;29.25;28.00;;;;;8.77;39.89;97848.88;5008565;28;8923;-77
2023/03/15 04:00:42;;;;;;;;;40.50;34.50;;;;;8.93;39.12;97840.38;4996594;28;8875;-76
2023/03/15 04:03:11;;;;;;;;;38.25;31.25;;;;;8.92;38.92;97839.53;5011793;28;8868;-76
2023/03/15 04:05:45;;;;;;;;;37.50;35.75;;;;;9.02;39.21;97842.63;5028196;28;8864;-76
2023/03/15 04:08:18;;;;;;;;;35.50;31.25;;;;;9.06;38.78;97846.81;5027865;28;8895;-77
2023/03/15 04:10:50;;;;;;;;;35.50;33.75;;;;;8.94;39.41;97844.72;5010909;28;8884;-75
2023/03/15 04:13:19;;;;;;;;;37.50;33.50;;;;;8.81;39.52;97846.97;5007901;28;9604;-75
2023/03/15 04:15:56;;;;;;;;;34.50;31.50;;;;;8.73;39.90;97857.78;4992011;28;8855;-77
2023/03/15 04:18:28;;;;;;;;;33.00;27.50;;;;;8.74;39.78;97858.63;4975807;28;8846;-76
2023/03/15 04:20:57;;;;;;;;;29.25;29.25;;;;;8.60;39.87;97853.94;4991586;28;8856;-75
2023/03/15 04:23:27;;;;;;;;;31.50;31.00;;;;;8.47;39.94;97848.34;4959804;28;8847;-75
2023/03/15 04:26:16;;;;;;;;;61.75;49.50;;;;;8.56;39.70;97836.66;5008159;28;8867;-75
2023/03/15 04:29:11;;;;;;;;;37.50;32.50;;;;;8.18;41.38;97833.75;4993915;28;8852;-76
2023/03/15 04:32:16;;;;;;;;;27.50;27.25;;;;;8.30;40.74;97832.41;4950139;28;8873;-76
2023/03/15 04:34:54;;;;;;;;;29.00;29.00;;;;;8.16;41.35;97848.66;4947514;28;8853;-77
2023/03/15 04:37:38;;;;;;;;;33.75;28.25;;;;;8.31;40.64;97842.00;4930097;29;8917;-75
2023/03/15 04:40:34;;;;;;;;;28.75;26.75;;;;;8.28;40.32;97842.94;4930393;29;8949;-78
2023/03/15 04:43:29;;;;;;;;;34.50;32.50;;;;;8.45;40.32;97831.84;4914283;28;8878;-77
2023/03/15 04:46:17;;;;;;;;;47.25;40.25;;;;;8.43;40.25;97837.13;4967192;28;8874;-79
2023/03/15 04:49:03;;;;;;;;;57.25;46.25;;;;;8.57;40.00;97835.72;4949373;28;9861;-76
2023/03/15 04:51:46;;;;;;;;;38.75;36.00;;;;;8.15;40.90;97839.09;4919078;29;8894;-78
2023/03/15 04:54:41;;;;;;;;;34.00;31.00;;;;;7.93;41.24;97839.03;4931173;29;8911;-77
2023/03/15 04:57:32;;;;;;;;;30.50;27.25;;;;;8.05;41.53;97842.06;4874006;29;9080;-76
2023/03/15 05:00:32;;;;;;;;;32.20;28.60;;;;;8.22;40.85;97844.03;4879910;29;9614;-77
2023/03/15 05:03:04;;;;;;;;;30.50;27.75;;;;;8.16;41.46;97839.03;4892606;29;8965;-76
2023/03/15 05:06:06;;;;;;;;;53.25;43.00;;;;;8.03;41.53;97848.28;4860318;29;8873;-76
2023/03/15 05:08:56;;;;;;;;;36.00;34.00;;;;;7.78;42.52;97837.84;4843022;29;8996;-76
2023/03/15 05:11:46;;;;;;;;;32.25;31.00;;;;;7.81;42.64;97830.75;4858193;29;8897;-77
2023/03/15 05:14:32;;;;;;;;;27.75;26.75;;;;;7.34;43.84;97824.63;4845114;29;8993;-78
2023/03/15 05:17:21;;;;;;;;;30.00;28.25;;;;;7.20;43.66;97823.38;4853732;29;8868;-77
2023/03/15 05:20:14;;;;;;;;;32.25;28.00;;;;;7.27;44.30;97834.47;4866622;29;9632;-77
2023/03/15 05:22:53;;;;;;;;;32.75;27.25;;;;;7.53;43.91;97830.91;4894474;29;8960;-75
2023/03/15 05:25:57;;;;;;;;;46.50;41.75;;;;;7.61;43.72;97830.66;4897716;29;8923;-76
2023/03/15 05:28:52;;;;;;;;;41.25;37.00;;;;;7.63;43.70;97834.06;4878718;29;8900;-77
2023/03/15 05:31:35;;;;;;;;;59.00;49.75;;;;;7.78;43.57;97832.63;4896054;29;9042;-76
2023/03/15 05:34:17;;;;;;;;;29.75;24.75;;;;;7.59;43.54;97840.28;4909314;29;9008;-75
2023/03/15 05:36:46;;;;;;;;;33.25;25.50;;;;;7.90;42.79;97847.03;4922706;29;9654;-76
2023/03/15 05:39:41;;;;;;;;;27.50;26.50;;;;;8.04;42.54;97853.47;4931224;29;8872;-79
2023/03/15 05:42:30;;;;;;;;;28.25;28.25;;;;;7.67;43.44;97856.56;4918344;28;8869;-76
2023/03/15 05:45:18;;;;;;;;;26.00;24.25;;;;;7.76;43.05;97863.22;4947830;28;8878;-76
2023/03/15 05:48:20;;;;;;;;;27.50;26.75;;;;;7.56;44.16;97867.41;4959319;28;8993;-76
2023/03/15 05:51:12;;;;;;;;;30.25;26.00;;;;;7.90;42.44;97863.56;4960171;28;8892;-77
2023/03/15 05:54:00;;;;;;;;;28.75;24.75;;;;;8.10;42.84;97875.94;4932337;28;8873;-74
2023/03/15 05:57:00;;;;;;;;;28.00;26.50;;;;;8.19;42.35;97872.94;4942620;28;8863;-76
2023/03/15 05:59:37;;;;;;;;;31.00;30.25;;;;;8.24;41.91;97878.84;4925784;28;8943;-76
2023/03/15 06:02:10;;;;;;;;;29.75;27.25;;;;;8.16;42.26;97880.06;4968604;28;9000;-78
2023/03/15 06:04:55;;;;;;;;;36.00;35.25;;;;;7.45;43.85;97893.09;4984231;28;8879;-77
2023/03/15 06:07:27;;;;;;;;;29.00;28.00;;;;;7.22;44.20;97893.88;5021840;28;8879;-76
2023/03/15 06:09:56;;;;;;;;;28.75;28.75;;;;;7.34;43.85;97882.16;4960386;28;8955;-77
2023/03/15 06:12:27;;;;;;;;;32.75;29.25;;;;;7.13;44.50;97895.03;4949818;28;8994;-77
2023/03/15 06:14:56;;;;;;;;;38.00;33.00;;;;;6.47;46.41;97907.56;4966171;28;9092;-78
2023/03/15 06:17:25;;;;;;;;;35.75;32.00;;;;;6.07;46.98;97909.59;4954465;28;8906;-76
2023/03/15 06:19:54;;;;;;;;;36.00;31.25;;;;;5.78;48.51;97918.25;4954152;28;8854;-76
2023/03/15 06:22:23;;;;;;;;;37.00;34.75;;;;;6.09;47.51;97917.38;4969735;28;8881;-79
2023/03/15 06:25:01;;;;;;;;;30.50;30.50;;;;;5.79;48.38;97925.16;4969292;28;8852;-78
2023/03/15 06:27:31;;;;;;;;;34.00;31.50;;;;;6.40;46.68;97925.19;4971733;28;8914;-77
2023/03/15 06:30:00;;;;;;;;;30.75;30.00;;;;;6.68;45.54;97924.31;5022090;28;8997;-77
2023/03/15 06:32:29;;;;;;;;;37.25;33.25;;;;;6.80;45.08;97931.78;4990462;28;8944;-78
2023/03/15 06:34:58;;;;;;;;;35.25;32.50;;;;;7.27;43.95;97934.63;5050350;28;8860;-77
2023/03/15 06:37:27;;;;;;;;;29.75;28.75;;;;;7.51;43.14;97937.31;5032379;28;8882;-77
2023/03/15 06:40:07;;;;;;;;;38.25;31.75;;;;;7.79;43.17;97937.19;5063328;28;8969;-79
2023/03/15 06:42:38;;;;;;;;;32.25;32.00;;;;;8.14;41.98;97947.31;5050005;28;8899;-78
2023/03/15 06:45:10;;;;;;;;;28.00;26.75;;;;;8.28;42.13;97960.75;5063108;28;8872;-76
2023/03/15 06:47:39;;;;;;;;;31.75;30.25;;;;;8.10;42.47;97959.66;5046876;28;8864;-79
2023/03/15 06:50:09;;;;;;;;;21.50;17.50;;;;;7.05;44.87;97960.59;4997615;28;8861;-78
2023/03/15 06:52:39;;;;;;;;;34.50;32.75;;;;;7.29;44.25;97968.56;5047054;28;9003;-76
2023/03/15 06:55:11;;;;;;;;;36.25;36.25;;;;;7.01;45.00;97973.81;5063273;28;8840;-79
2023/03/15 06:57:42;;;;;;;;;36.00;36.00;;;;;6.41;46.67;97986.06;5030144;28;8879;-78
2023/03/15 07:00:13;;;;;;;;;42.75;39.50;;;;;6.10;47.65;97985.16;5029982;28;8899;-79
2023/03/15 07:02:42;;;;;;;;;45.00;40.75;;;;;5.53;47.87;97984.09;5046596;28;8865;-77
2023/03/15 07:05:11;;;;;;;;;35.75;31.75;;;;;5.34;47.35;97983.69;5013594;28;8837;-77
2023/03/15 07:07:40;;;;;;;;;38.75;31.75;;;;;5.07;48.22;97994.75;5052754;28;8848;-77
2023/03/15 07:10:10;;;;;;;;;36.00;34.75;;;;;5.07;47.51;97998.19;5054248;28;8861;-76
2023/03/15 07:12:39;;;;;;;;;30.25;28.25;;;;;4.95;47.29;98001.09;5063689;28;8848;-77
2023/03/15 07:15:11;;;;;;;;;29.25;27.00;;;;;5.06;47.14;98009.50;5063185;28;8860;-82
2023/03/15 07:17:41;;;;;;;;;29.25;28.00;;;;;5.06;47.02;98004.31;5063787;28;8984;-78
2023/03/15 07:20:12;;;;;;;;;34.50;32.75;;;;;4.83;47.67;98019.59;4980696;28;9647;-80
2023/03/15 07:22:40;;;;;;;;;27.50;23.25;;;;;4.84;46.93;98031.72;5046224;28;8974;-79
2023/03/15 07:25:10;;;;;;;;;23.25;21.75;;;;;4.78;47.02;98031.88;5063247;28;8861;-78
2023/03/15 07:27:38;;;;;;;;;25.50;24.50;;;;;5.18;46.84;98036.16;5044440;28;8877;-78
2023/03/15 07:30:08;;;;;;;;;32.75;32.00;;;;;5.51;46.10;98037.16;5042679;28;9008;-80
2023/03/15 07:32:39;;;;;;;;;32.50;31.50;;;;;5.65;46.01;98050.69;5026957;28;8878;-80
2023/03/15 07:35:09;;;;;;;;;28.75;27.75;;;;;5.84;45.43;98050.22;5026168;28;8854;-78
2023/03/15 07:37:41;;;;;;;;;35.00;28.50;;;;;6.17;44.76;98048.50;5026863;28;8942;-78
2023/03/15 07:40:14;;;;;;;;;37.00;30.50;;;;;6.42;45.04;98042.59;5027140;28;8866;-78
2023/03/15 07:42:43;;;;;;;;;35.25;33.50;;;;;6.38;45.48;98048.75;5012144;28;8858;-80
2023/03/15 07:45:14;;;;;;;;;30.00;28.00;;;;;6.00;44.98;98053.28;5028965;28;8842;-79
2023/03/15 07:47:44;;;;;;;;;24.25;21.00;;;;;5.61;46.23;98054.25;5012207;28;8988;-77
2023/03/15 07:50:14;;;;;;;;;33.00;30.25;;;;;5.65;46.10;98053.28;5011932;28;8870;-78
2023/03/15 07:52:44;;;;;;;;;31.25;27.75;;;;;5.38;45.85;98067.84;5028314;28;8947;-77
2023/03/15 07:55:14;;;;;;;;;25.25;24.00;;;;;5.57;45.81;98070.00;5011878;28;8842;-78
2023/03/15 07:57:42;;;;;;;;;42.00;35.25;;;;;5.68;46.34;98055.84;5028283;28;8846;-79
2023/03/15 08:00:13;;;;;;;;;26.75;23.25;;;;;5.79;45.96;98059.91;5027676;28;8838;-77
2023/03/15 08:02:42;;;;;;;;;22.50;21.25;;;;;5.32;47.58;98063.66;5063395;28;8860;-77
2023/03/15 08:05:12;;;;;;;;;34.00;31.50;;;;;5.62;47.06;98058.56;5047808;28;8849;-78
2023/03/15 08:07:41;;;;;;;;;30.00;27.25;;;;;5.91;46.13;98062.22;5047756;28;8953;-77
2023/03/15 08:10:12;;;;;;;;;27.25;25.25;;;;;5.71;47.41;98070.53;5048305;28;8848;-78
2023/03/15 08:12:42;;;;;;;;;22.50;22.25;;;;;5.60;48.10;98076.00;5064100;28;8864;-79
2023/03/15 08:15:11;;;;;;;;;28.25;24.50;;;;;5.63;48.36;98078.53;5047414;28;8861;-78
2023/03/15 08:17:42;;;;;;;;;29.75;27.75;;;;;5.79;48.05;98080.75;5047241;28;8849;-80
2023/03/15 08:20:16;;;;;;;;;28.75;23.50;;;;;5.57;49.21;98083.03;5046395;28;8856;-77
2023/03/15 08:22:45;;;;;;;;;29.25;28.00;;;;;5.61;49.19;98088.16;5079858;28;8856;-80
2023/03/15 08:25:16;;;;;;;;;29.75;27.00;;;;;5.65;49.62;98087.19;5030119;28;8942;-78
2023/03/15 08:27:45;;;;;;;;;33.50;30.25;;;;;6.22;48.26;98087.47;5065023;28;8941;-79
2023/03/15 08:30:15;;;;;;;;;29.25;29.25;;;;;6.81;46.89;98089.31;4999321;28;8824;-78
2023/03/15 08:32:46;;;;;;;;;28.00;25.50;;;;;6.20;50.35;98099.72;5025899;28;8879;-78
2023/03/15 08:35:19;;;;;;;;;28.50;26.00;;;;;6.10;51.32;98097.34;5011702;28;8872;-77
2023/03/15 08:37:48;;;;;;;;;34.50;30.25;;;;;6.22;52.47;98103.97;5012432;28;8880;-80
2023/03/15 08:40:23;;;;;;;;;32.50;30.00;;;;;6.53;51.74;98103.19;4979922;28;8888;-78
2023/03/15 08:42:53;;;;;;;;;34.00;31.50;;;;;6.42;53.53;98115.66;5011274;28;8884;-78
2023/03/15 08:45:23;;;;;;;;;33.50;30.25;;;;;6.41;55.48;98111.34;5028055;28;9702;-79
2023/03/15 08:47:55;;;;;;;;;27.25;24.50;;;;;6.22;57.84;98117.03;5027718;28;8881;-78
2023/03/15 08:50:27;;;;;;;;;30.50;29.50;;;;;6.20;58.39;98124.03;4980369;28;8844;-78
2023/03/15 08:52:56;;;;;;;;;23.00;20.75;;;;;6.25;58.51;98111.75;5012478;28;8868;-78
2023/03/15 08:55:25;;;;;;;;;25.75;23.00;;;;;6.89;56.72;98111.75;5024634;28;8865;-79
2023/03/15 08:57:53;;;;;;;;;27.50;24.75;;;;;7.25;55.12;98113.31;4995310;28;8857;-79
2023/03/15 09:00:23;;;;;;;;;28.00;25.25;;;;;7.71;54.51;98113.63;4979900;28;8957;-78
2023/03/15 09:02:52;;;;;;;;;32.25;30.00;;;;;7.08;57.97;98109.44;5028616;28;8876;-78
2023/03/15 09:05:22;;;;;;;;;22.75;22.75;;;;;7.09;58.77;98120.75;5047967;28;8842;-77
2023/03/15 09:07:52;;;;;;;;;29.50;27.75;;;;;7.24;58.66;98122.91;5047478;28;8873;-80
2023/03/15 09:10:22;;;;;;;;;29.25;28.00;;;;;7.13;59.09;98119.75;5031227;28;9008;-79
2023/03/15 09:12:52;;;;;;;;;30.80;27.60;;;;;6.82;60.82;98118.00;5031116;28;8996;-77
2023/03/15 09:15:21;;;;;;;;;28.00;26.50;;;;;7.12;60.88;98117.19;5014758;28;8838;-78
2023/03/15 09:17:51;;;;;;;;;24.25;23.75;;;;;7.23;60.97;98115.09;5047477;28;8834;-78
2023/03/15 09:20:21;;;;;;;;;27.25;24.50;;;;;7.67;59.71;98112.88;5050923;28;8852;-79
2023/03/15 09:22:54;;;;;;;;;28.25;26.25;;;;;7.49;60.62;98114.31;5050364;28;8840;-78
2023/03/15 09:25:24;;;;;;;;;16.80;16.60;;;;;7.24;61.44;98122.91;5051153;28;8867;-79
2023/03/15 09:27:53;;;;;;;;;24.40;21.80;;;;;7.09;62.11;98118.97;5051448;28;8867;-78
2023/03/15 09:30:22;;;;;;;;;22.20;21.20;;;;;7.07;61.55;98120.78;5035920;28;8840;-79
2023/03/15 09:32:51;;;;;;;;;20.80;16.80;;;;;6.80;61.73;98129.41;5068384;28;8848;-79
2023/03/15 09:35:21;;;;;;;;;11.60;11.60;;;;;6.36;63.44;98128.84;5034064;28;8945;-78
2023/03/15 09:37:50;;;;;;;;;15.80;15.80;;;;;6.54;62.37;98125.75;5051122;28;9724;-78
2023/03/15 09:40:24;;;;;;;;;23.40;16.80;;;;;6.72;61.97;98134.84;5067699;28;8852;-79
2023/03/15 09:43:01;;;;;;;;;17.40;16.40;;;;;7.10;60.59;98130.31;5030579;28;8862;-78
2023/03/15 09:45:50;;;;;;;;;13.40;12.20;;;;;7.64;58.47;98124.28;5046297;28;8929;-77
2023/03/15 09:48:26;;;;;;;;;15.60;14.80;;;;;7.80;57.22;98127.25;5030736;28;8982;-79
2023/03/15 09:51:00;;;;;;;;;15.60;15.60;;;;;7.95;56.49;98104.09;4997499;28;9589;-79
2023/03/15 09:53:33;;;;;;;;;15.40;15.40;;;;;8.11;55.64;98128.84;5046459;28;8870;-78
2023/03/15 09:56:09;;;;;;;;;16.80;15.80;;;;;7.92;57.02;98133.84;5011404;28;8875;-79
2023/03/15 09:58:40;;;;;;;;;13.40;13.40;;;;;8.11;55.49;98123.63;5061095;28;8965;-80
2023/03/15 10:01:14;;;;;;;;;13.40;12.40;;;;;7.85;56.77;98129.72;5044238;28;9526;-76
2023/03/15 10:03:47;;;;;;;;;14.40;13.40;;;;;8.67;54.10;98124.34;5027823;28;8871;-77
2023/03/15 10:06:21;;;;;;;;;15.40;14.00;;;;;7.68;57.20;98145.94;5044657;28;8859;-79
2023/03/15 10:08:54;;;;;;;;;20.20;18.60;;;;;8.09;56.36;98146.38;5056755;28;9750;-80
2023/03/15 10:11:31;;;;;;;;;17.60;15.40;;;;;7.32;58.80;98156.66;5049770;28;8950;-78
2023/03/15 10:14:17;;;;;;;;;20.00;20.00;;;;;7.37;58.36;98159.97;5064640;28;8991;-80
2023/03/15 10:16:48;;;;;;;;;21.80;21.20;;;;;7.41;58.03;98161.59;5013939;28;8883;-79
2023/03/15 10:19:28;;;;;;;;;14.60;13.40;;;;;7.11;59.70;98168.59;5064437;28;8941;-78
2023/03/15 10:22:02;;;;;;;;;16.20;14.80;;;;;6.78;60.00;98171.25;5031008;28;8881;-78
2023/03/15 10:24:37;;;;;;;;;16.40;14.00;;;;;6.63;60.90;98184.72;5049628;28;8871;-80
2023/03/15 10:27:19;;;;;;;;;18.60;16.20;;;;;6.69;60.88;98180.16;5066365;28;8860;-80
2023/03/15 10:29:50;;;;;;;;;17.20;17.00;;;;;6.81;61.13;98175.50;5025706;28;8859;-78
2023/03/15 10:32:25;;;;;;;;;17.60;16.40;;;;;6.85;61.05;98180.63;5009683;28;8868;-80
2023/03/15 10:34:58;;;;;;;;;19.80;17.00;;;;;6.64;61.63;98183.81;5005970;28;9761;-78
2023/03/15 10:37:27;;;;;;;;;18.40;18.20;;;;;6.86;60.39;98179.72;5006444;28;8890;-78
2023/03/15 10:39:59;;;;;;;;;18.20;17.40;;;;;6.82;59.98;98191.16;5010666;28;8921;-76
2023/03/15 10:42:31;;;;;;;;;20.00;17.60;;;;;6.80;60.73;98192.94;5015106;28;8883;-78
2023/03/15 10:45:12;;;;;;;;;22.00;18.00;;;;;6.81;61.21;98204.25;4990271;28;8883;-77
2023/03/15 10:47:44;;;;;;;;;10.40;10.40;;;;;6.82;61.28;98188.53;4986431;28;8862;-78
2023/03/15 10:50:27;;;;;;;;;19.80;17.60;;;;;6.73;61.45;98182.72;4986319;28;8890;-80
2023/03/15 10:52:58;;;;;;;;;27.00;21.40;;;;;6.73;61.71;98187.94;4954011;28;8896;-80
2023/03/15 10:55:32;;;;;;;;;23.80;22.60;;;;;6.76;62.11;98183.47;4963774;28;10010;-79
2023/03/15 10:58:22;;;;;;;;;21.20;19.20;;;;;6.49;62.38;98192.88;4944186;28;8877;-79
2023/03/15 11:00:59;;;;;;;;;29.75;25.75;;;;;6.83;61.60;98195.47;4945766;28;8863;-78
2023/03/15 11:03:29;;;;;;;;;22.50;18.75;;;;;6.98;61.71;98195.97;4983232;28;8860;-77
2023/03/15 11:05:59;;;;;;;;;21.40;19.60;;;;;7.05;61.46;98190.53;4992596;28;8895;-78
2023/03/15 11:08:38;;;;;;;;;23.00;20.40;;;;;6.92;62.08;98196.16;5042116;28;9748;-78
2023/03/15 11:11:08;;;;;;;;;25.75;24.00;;;;;7.06;61.20;98199.22;5025579;28;8845;-78
2023/03/15 11:13:40;;;;;;;;;21.50;20.50;;;;;6.62;62.22;98202.13;5025987;28;10133;-77
2023/03/15 11:16:21;;;;;;;;;23.50;22.25;;;;;6.47;63.00;98200.78;5022101;28;8963;-77
2023/03/15 11:18:55;;;;;;;;;26.25;25.25;;;;;6.41;63.34;98200.91;5021905;28;8858;-81
2023/03/15 11:21:32;;;;;;;;;23.75;22.00;;;;;6.45;63.19;98199.94;5021610;28;8881;-79
2023/03/15 11:24:04;;;;;;;;;29.50;26.50;;;;;6.56;63.16;98198.81;5021665;28;8865;-79
2023/03/15 11:26:36;;;;;;;;;22.00;21.50;;;;;6.55;63.44;98195.38;5059113;28;9613;-78
2023/03/15 11:29:14;;;;;;;;;23.50;22.00;;;;;6.68;62.35;98195.88;5027834;28;8868;-77
2023/03/15 11:31:45;;;;;;;;;30.25;26.50;;;;;6.76;61.93;98186.09;5042027;28;9034;-78
2023/03/15 11:34:22;;;;;;;;;31.75;27.25;;;;;6.63;62.59;98195.16;5046233;28;8875;-77
2023/03/15 11:36:55;;;;;;;;;32.00;27.50;;;;;6.59;62.89;98204.81;5046214;28;8868;-79
2023/03/15 11:39:44;;;;;;;;;38.00;35.75;;;;;6.56;62.35;98209.28;5046529;28;9011;-79
2023/03/15 11:42:28;;;;;;;;;35.00;31.25;;;;;6.00;64.79;98205.44;5079742;28;8861;-78
2023/03/15 11:45:04;;;;;;;;;33.25;32.25;;;;;5.89;65.95;98213.50;5047700;28;8868;-79
2023/03/15 11:47:42;;;;;;;;;29.25;27.50;;;;;5.71;66.75;98201.75;5046605;28;10106;-80
2023/03/15 11:50:14;;;;;;;;;32.00;23.33;;;;;5.81;66.69;98209.34;5062758;28;8872;-77
2023/03/15 11:52:47;;;;;;;;;26.00;22.00;;;;;5.41;68.42;98207.63;5062885;28;9639;-78
2023/03/15 11:55:20;;;;;;;;;26.50;21.75;;;;;5.47;68.67;98210.97;5047882;28;8865;-80
2023/03/15 11:57:49;;;;;;;;;26.25;25.25;;;;;5.46;68.55;98213.63;5047690;28;8891;-79
2023/03/15 12:00:47;;;;;;;;;25.60;20.40;;;;;5.23;69.52;98209.72;5046486;28;8849;-79
2023/03/15 12:03:40;;;;;;;;;22.00;22.00;;;;;5.44;69.66;98210.19;5079754;28;8844;-79